Terminal Aerodrome Forecast
Issued by NWS

Home | Current Version | Previous Version | Text Only | Print | Product List | Glossary On
Versions: 1 2 3 4 5 6 7 8 9 10 11 12 13 14 15 16 17
000
FTUS42 KMHX 190553
TAFISO
TAF
KISO 190553Z 1906/2006 00000KT 4SM BR BKN100
     FM191200 08010KT P6SM VCSH SCT020 BKN050
     FM191700 14010KT 4SM -SHRA OVC025
     FM192200 14010KT 3SM SHRA OVC007
      AMD LTD TO CLD VIS AND WIND=

USA.gov is the U.S. government's official web portal to all federal, state and local government web resources and services.